Terminal Aerodrome Forecast
Issued by NWS Sioux Falls, SD

Home | Current Version | Previous Version | Text Only | Print | Product List | Glossary On
Versions: 1 2 3 4 5 6 7 8 9 10 11 12 13 14 15 16 17
000
FTUS43 KFSD 241510 AAC
TAFFSD
TAF AMD
KFSD 241510Z 2415/2512 09011KT 4SM -RA BR OVC008
      TEMPO 2415/2419 6SM -RA BR OVC015
     FM242000 08006KT P6SM OVC015
     FM250200 03005KT P6SM OVC015=

USA.gov is the U.S. government's official web portal to all federal, state and local government web resources and services.